Terminal Aerodrome Forecast
Issued by NWS

Home | Current Version | Previous Version | Text Only | Print | Product List | Glossary On
Versions: 1 2 3 4 5 6 7 8 9 10 11 12 13 14 15 16
000
FTUS46 KPQR 031130
TAFONP
TAF
KONP 031130Z 0312/0412 VRB03KT P6SM SCT018 BKN080
      TEMPO 0312/0316 BKN018 OVC080
     FM031900 34010KT P6SM BKN021 BKN100
     FM032200 34014G22KT P6SM BKN018 OVC080
     FM040100 34013G21KT P6SM -SHRA BKN015 OVC070
     FM040600 35010KT P6SM -SHRA SCT015 BKN050 OVC070=

USA.gov is the U.S. government's official web portal to all federal, state and local government web resources and services.